Time;durP1;ratioP1;P1;durP2;ratioP2;P2;SDS_P1;SDS_P2;PMS_P1;PMS_P2;Temp;Humidity;BMP_temperature;BMP_pressure;BME280_temperature;BME280_humidity;BME280_pressure;Samples;Min_cycle;Max_cycle;Signal;HPM_P1;HPM_P2
2023/03/07 00:01:42;;;;;;;7.57;4.18;;;0.90;99.50;;;;;;5083333;28;20401;-65
2023/03/07 00:04:08;;;;;;;7.50;4.63;;;1.00;99.50;;;;;;5077599;28;20044;-65
2023/03/07 00:06:34;;;;;;;6.78;4.10;;;1.00;99.40;;;;;;5077630;28;20039;-65
2023/03/07 00:09:01;;;;;;;8.55;5.03;;;1.00;99.40;;;;;;5075413;28;20483;-65
2023/03/07 00:11:27;;;;;;;9.65;4.97;;;1.10;99.60;;;;;;5082740;28;20117;-65
2023/03/07 00:13:54;;;;;;;8.68;4.63;;;1.10;99.60;;;;;;5071673;28;20020;-65
2023/03/07 00:16:22;;;;;;;8.73;4.65;;;1.10;99.50;;;;;;5085000;28;20085;-65
2023/03/07 00:18:48;;;;;;;11.07;5.32;;;1.20;99.60;;;;;;5078332;28;20028;-65
2023/03/07 00:21:16;;;;;;;13.35;5.30;;;1.20;99.80;;;;;;5074691;28;20032;-65
2023/03/07 00:23:44;;;;;;;9.93;5.57;;;1.20;99.90;;;;;;5077018;28;20482;-65
2023/03/07 00:26:16;;;;;;;10.02;5.35;;;1.20;99.90;;;;;;5085471;28;20038;-65
2023/03/07 00:28:44;;;;;;;11.57;6.28;;;1.30;99.90;;;;;;5067902;28;20030;-65
2023/03/07 00:31:10;;;;;;;11.85;6.07;;;1.40;99.90;;;;;;5081292;28;20035;-65
2023/03/07 00:33:37;;;;;;;10.52;5.30;;;1.40;99.90;;;;;;5075258;28;20111;-65
2023/03/07 00:36:09;;;;;;;11.25;5.93;;;1.40;99.90;;;;;;5077554;28;20543;-65
2023/03/07 00:38:35;;;;;;;11.52;5.75;;;1.40;99.90;;;;;;5071047;28;20032;-65
2023/03/07 00:41:07;;;;;;;10.90;5.80;;;1.40;99.90;;;;;;5074236;28;20032;-65
2023/03/07 00:43:34;;;;;;;10.45;5.50;;;1.50;99.90;;;;;;5069819;28;20121;-65
2023/03/07 00:46:00;;;;;;;10.63;4.97;;;1.50;99.90;;;;;;5079550;28;20028;-65
2023/03/07 00:48:27;;;;;;;13.25;6.22;;;1.50;99.90;;;;;;5070657;28;20503;-65
2023/03/07 00:50:55;;;;;;;12.05;6.13;;;1.50;99.90;;;;;;5088249;28;20144;-65
2023/03/07 00:53:23;;;;;;;11.43;5.75;;;1.60;99.90;;;;;;5072581;28;20331;-65
2023/03/07 00:55:56;;;;;;;10.55;6.53;;;1.60;99.90;;;;;;5077136;28;20031;-65
2023/03/07 00:58:22;;;;;;;12.88;6.55;;;1.60;99.90;;;;;;5084736;28;20756;-65
2023/03/07 01:00:50;;;;;;;11.98;6.35;;;1.60;99.90;;;;;;5074327;28;20753;-65
2023/03/07 01:03:17;;;;;;;13.18;7.30;;;1.60;99.90;;;;;;5076382;28;20170;-65
2023/03/07 01:05:43;;;;;;;14.80;7.82;;;1.70;99.90;;;;;;5084445;28;20139;-65
2023/03/07 01:08:09;;;;;;;15.52;7.68;;;1.70;99.90;;;;;;5072418;28;20134;-66
2023/03/07 01:10:35;;;;;;;17.13;8.50;;;1.70;99.90;;;;;;5077462;28;20073;-65
2023/03/07 01:13:01;;;;;;;16.67;8.38;;;1.80;99.90;;;;;;5084803;28;20024;-65
2023/03/07 01:15:28;;;;;;;16.95;8.45;;;1.70;99.90;;;;;;5075444;28;20072;-65
2023/03/07 01:17:53;;;;;;;18.58;9.45;;;1.70;99.90;;;;;;5084397;28;20796;-66
2023/03/07 01:20:19;;;;;;;17.55;9.27;;;1.70;99.90;;;;;;5083197;28;20448;-65
2023/03/07 01:22:45;;;;;;;17.20;8.20;;;1.80;99.90;;;;;;5074230;28;20035;-65
2023/03/07 01:25:12;;;;;;;16.25;8.90;;;1.80;99.90;;;;;;5087052;28;20147;-66
2023/03/07 01:27:39;;;;;;;15.80;8.10;;;1.80;99.90;;;;;;5077660;28;20033;-65
2023/03/07 01:30:06;;;;;;;17.73;9.60;;;1.80;99.90;;;;;;5091589;28;20028;-65
2023/03/07 01:32:33;;;;;;;18.60;8.93;;;1.90;99.90;;;;;;5075928;28;20108;-65
2023/03/07 01:35:00;;;;;;;21.05;9.63;;;1.90;99.90;;;;;;5087367;28;20024;-66
2023/03/07 01:37:26;;;;;;;23.13;10.90;;;1.80;99.90;;;;;;5081273;28;20045;-66
2023/03/07 01:39:52;;;;;;;18.63;9.13;;;1.70;99.90;;;;;;5085135;28;20082;-65
2023/03/07 01:42:21;;;;;;;22.48;10.32;;;1.70;99.90;;;;;;5078770;28;20034;-65
2023/03/07 01:45:02;;;;;;;22.65;10.82;;;1.80;99.90;;;;;;5089090;28;20040;-66
2023/03/07 01:47:46;;;;;;;26.17;10.23;;;1.90;99.90;;;;;;5087218;28;20016;-65
2023/03/07 01:50:16;;;;;;;27.10;12.13;;;1.90;99.90;;;;;;5087134;28;20029;-65
2023/03/07 01:52:51;;;;;;;28.50;12.18;;;1.90;99.90;;;;;;5084101;28;20220;-66
2023/03/07 01:55:20;;;;;;;26.60;11.98;;;2.00;99.90;;;;;;5079702;28;20032;-66
2023/03/07 01:57:50;;;;;;;28.90;12.60;;;2.00;99.90;;;;;;5086098;28;20032;-66
2023/03/07 02:00:28;;;;;;;30.55;13.27;;;1.90;99.90;;;;;;5083900;28;20042;-66
2023/03/07 02:03:09;;;;;;;28.75;12.68;;;2.00;99.90;;;;;;5088835;28;20084;-65
2023/03/07 02:05:44;;;;;;;30.05;13.52;;;2.10;99.90;;;;;;5076986;28;20033;-65
2023/03/07 02:08:13;;;;;;;34.40;14.07;;;2.10;99.90;;;;;;5082544;28;20025;-65
2023/03/07 02:10:40;;;;;;;33.38;14.95;;;2.10;99.90;;;;;;5072705;28;20117;-66
2023/03/07 02:13:06;;;;;;;30.33;12.98;;;2.00;99.90;;;;;;5085297;28;20429;-66
2023/03/07 02:15:33;;;;;;;28.80;13.68;;;1.90;99.90;;;;;;5081620;28;20043;-65
2023/03/07 02:18:00;;;;;;;35.35;15.05;;;2.00;99.90;;;;;;5083520;28;20031;-65
2023/03/07 02:21:08;;;;;;;31.77;14.43;;;2.00;99.90;;;;;;5087004;28;20072;-66
2023/03/07 02:23:49;;;;;;;;;;;2.10;99.90;;;;;;5078425;28;20083;-65
2023/03/07 02:26:30;;;;;;;29.88;13.82;;;2.10;99.90;;;;;;5075600;28;19912;-66
2023/03/07 02:28:57;;;;;;;32.50;14.43;;;2.20;99.90;;;;;;5074415;28;20028;-65
2023/03/07 02:31:24;;;;;;;35.63;14.95;;;2.30;99.90;;;;;;5079155;28;20032;-65
2023/03/07 02:33:50;;;;;;;32.08;14.85;;;2.30;99.90;;;;;;5082122;28;20139;-66
2023/03/07 02:36:31;;;;;;;33.58;16.05;;;2.30;99.90;;;;;;5079364;28;20135;-65
2023/03/07 02:39:08;;;;;;;31.30;14.27;;;2.30;99.90;;;;;;5079718;28;20031;-65
2023/03/07 02:41:39;;;;;;;33.72;14.32;;;2.30;99.90;;;;;;5075393;28;20060;-65
2023/03/07 02:44:13;;;;;;;29.30;12.80;;;2.30;99.90;;;;;;5082695;28;20200;-66
2023/03/07 02:46:40;;;;;;;33.10;15.07;;;2.40;99.90;;;;;;5083076;28;20129;-66
2023/03/07 02:49:06;;;;;;;36.13;15.80;;;2.40;99.90;;;;;;5083753;28;20150;-66
2023/03/07 02:51:32;;;;;;;32.67;14.85;;;2.30;99.90;;;;;;5084671;28;20028;-65
2023/03/07 02:53:58;;;;;;;34.55;14.48;;;2.30;99.90;;;;;;5074508;28;20023;-66
2023/03/07 02:56:23;;;;;;;32.67;14.20;;;2.40;99.90;;;;;;5085148;28;20027;-65
2023/03/07 02:58:49;;;;;;;38.53;16.05;;;2.40;99.90;;;;;;5083890;28;20029;-65
2023/03/07 03:01:15;;;;;;;31.05;14.90;;;2.50;99.90;;;;;;5085283;28;20123;-65
2023/03/07 03:03:41;;;;;;;36.38;15.50;;;2.50;99.90;;;;;;5077227;28;20078;-65
2023/03/07 03:06:06;;;;;;;34.65;14.02;;;2.50;99.90;;;;;;5084060;28;20756;-65
2023/03/07 03:08:32;;;;;;;33.20;14.93;;;2.50;99.90;;;;;;5071719;28;20036;-65
2023/03/07 03:10:58;;;;;;;31.60;15.10;;;2.50;99.90;;;;;;5076582;28;20024;-65
2023/03/07 03:13:25;;;;;;;37.10;17.13;;;2.50;99.90;;;;;;5076710;28;20028;-65
2023/03/07 03:15:56;;;;;;;34.80;16.10;;;2.50;99.90;;;;;;5085696;28;20077;-65
2023/03/07 03:18:28;;;;;;;32.42;15.65;;;2.50;99.90;;;;;;5077058;28;20039;-66
2023/03/07 03:20:54;;;;;;;36.40;15.60;;;2.50;99.90;;;;;;5080910;28;20066;-65
2023/03/07 03:23:20;;;;;;;32.75;14.57;;;2.40;99.90;;;;;;5075329;28;20035;-64
2023/03/07 03:26:00;;;;;;;32.97;14.23;;;2.40;99.90;;;;;;5083964;28;20059;-65
2023/03/07 03:28:28;;;;;;;36.55;16.30;;;2.40;99.90;;;;;;5082753;28;20040;-65
2023/03/07 03:31:03;;;;;;;33.95;15.88;;;2.30;99.90;;;;;;5078066;28;20027;-65
2023/03/07 03:33:30;;;;;;;34.70;15.27;;;2.30;99.90;;;;;;5092364;28;20028;-65
2023/03/07 03:35:57;;;;;;;38.45;16.17;;;2.30;99.90;;;;;;5091552;28;20338;-64
2023/03/07 03:38:25;;;;;;;44.90;17.00;;;2.30;99.90;;;;;;5088394;28;20032;-65
2023/03/07 03:40:51;;;;;;;32.45;14.43;;;2.40;99.90;;;;;;5083027;28;20039;-65
2023/03/07 03:43:18;;;;;;;32.05;15.05;;;2.40;99.90;;;;;;5076776;28;20028;-65
2023/03/07 03:45:53;;;;;;;33.47;13.80;;;2.30;99.90;;;;;;5084556;28;20546;-65
2023/03/07 03:48:20;;;;;;;37.75;14.63;;;2.30;99.90;;;;;;5087612;28;20117;-65
2023/03/07 03:50:46;;;;;;;33.33;14.00;;;2.30;99.90;;;;;;5084697;28;20041;-65
2023/03/07 03:53:12;;;;;;;37.60;14.70;;;2.30;99.90;;;;;;5081849;28;20149;-65
2023/03/07 03:55:38;;;;;;;33.83;14.30;;;2.30;99.90;;;;;;5084900;28;20024;-65
2023/03/07 03:58:03;;;;;;;33.45;14.70;;;2.30;99.90;;;;;;5081670;28;20031;-65
2023/03/07 04:00:29;;;;;;;36.00;15.00;;;2.40;99.90;;;;;;5083492;28;20032;-65
2023/03/07 04:02:55;;;;;;;31.33;13.75;;;2.40;99.90;;;;;;5081140;28;20032;-65
2023/03/07 04:05:21;;;;;;;31.73;14.25;;;2.40;99.90;;;;;;5090148;28;20028;-65
2023/03/07 04:07:47;;;;;;;35.78;15.18;;;2.40;99.90;;;;;;5085761;28;20406;-65
2023/03/07 04:10:13;;;;;;;34.60;14.82;;;2.40;99.90;;;;;;5084332;28;20031;-64
2023/03/07 04:12:39;;;;;;;35.63;15.05;;;2.30;99.90;;;;;;5075920;28;20034;-65
2023/03/07 04:15:06;;;;;;;35.58;16.60;;;2.30;99.90;;;;;;5088711;28;20024;-65
2023/03/07 04:17:32;;;;;;;32.97;13.95;;;2.40;99.90;;;;;;5074483;28;20046;-65
2023/03/07 04:19:59;;;;;;;35.83;14.52;;;2.40;99.90;;;;;;5086976;28;20411;-65
2023/03/07 04:22:25;;;;;;;37.20;15.27;;;2.30;99.90;;;;;;5065580;28;20085;-65
2023/03/07 04:24:51;;;;;;;36.28;14.40;;;2.30;99.90;;;;;;5076309;28;20036;-65
2023/03/07 04:27:17;;;;;;;35.83;14.77;;;2.30;99.90;;;;;;5084073;28;20031;-65
2023/03/07 04:29:43;;;;;;;32.63;15.27;;;2.20;99.90;;;;;;5082442;28;20035;-65
2023/03/07 04:32:16;;;;;;;36.92;15.23;;;2.10;99.90;;;;;;5083802;28;20044;-65
2023/03/07 04:34:41;;;;;;;40.10;15.43;;;2.20;99.90;;;;;;5085436;28;20051;-64
2023/03/07 04:37:07;;;;;;;34.75;14.63;;;2.10;99.90;;;;;;5085960;28;20032;-65
2023/03/07 04:39:33;;;;;;;39.10;14.73;;;2.10;99.90;;;;;;5088052;28;20077;-65
2023/03/07 04:41:59;;;;;;;44.13;17.80;;;2.10;99.90;;;;;;5086461;28;20118;-64
2023/03/07 04:44:30;;;;;;;46.50;17.63;;;2.00;99.90;;;;;;5078813;28;20094;-64
2023/03/07 04:46:55;;;;;;;37.15;16.90;;;1.90;99.90;;;;;;5084656;28;20024;-65
2023/03/07 04:49:21;;;;;;;41.35;16.20;;;1.80;99.90;;;;;;5085248;28;20475;-65
2023/03/07 04:51:47;;;;;;;37.63;15.40;;;1.90;99.90;;;;;;5085113;28;20020;-65
2023/03/07 04:54:15;;;;;;;37.30;15.95;;;1.80;99.90;;;;;;5078315;28;20032;-65
2023/03/07 04:56:42;;;;;;;34.38;15.52;;;1.90;99.90;;;;;;5083704;28;20546;-65
2023/03/07 04:59:10;;;;;;;44.33;15.52;;;1.90;99.90;;;;;;5084511;28;20141;-65
2023/03/07 05:01:36;;;;;;;38.33;16.45;;;1.90;99.90;;;;;;5084905;28;20043;-65
2023/03/07 05:04:01;;;;;;;41.00;15.68;;;1.90;99.90;;;;;;5082748;28;20067;-65
2023/03/07 05:06:27;;;;;;;38.78;15.70;;;1.90;99.90;;;;;;5074926;28;20039;-65
2023/03/07 05:08:53;;;;;;;43.83;16.55;;;1.80;99.90;;;;;;5083291;28;20410;-65
2023/03/07 05:11:19;;;;;;;40.25;16.98;;;1.70;99.90;;;;;;5079955;28;20036;-65
2023/03/07 05:13:45;;;;;;;35.50;15.88;;;1.70;99.90;;;;;;5064838;28;20442;-65
2023/03/07 05:16:16;;;;;;;39.35;16.27;;;1.60;99.90;;;;;;5081238;28;20790;-65
2023/03/07 05:18:42;;;;;;;45.38;18.25;;;1.70;99.90;;;;;;5086173;28;20040;-65
2023/03/07 05:21:08;;;;;;;36.63;15.13;;;1.70;99.90;;;;;;5074845;28;20043;-65
2023/03/07 05:23:34;;;;;;;36.00;15.93;;;1.80;99.90;;;;;;5080792;28;20035;-65
2023/03/07 05:26:00;;;;;;;35.92;15.38;;;1.80;99.90;;;;;;5081329;28;20035;-65
2023/03/07 05:28:26;;;;;;;36.83;16.40;;;1.80;99.90;;;;;;5078169;28;20093;-65
2023/03/07 05:30:52;;;;;;;35.03;14.95;;;1.80;99.90;;;;;;5080529;28;20055;-65
2023/03/07 05:33:18;;;;;;;36.80;16.42;;;1.90;99.90;;;;;;5077360;28;20028;-64
2023/03/07 05:35:45;;;;;;;36.50;15.65;;;1.80;99.90;;;;;;5073759;28;20032;-64
2023/03/07 05:38:12;;;;;;;40.42;17.00;;;1.70;99.90;;;;;;5079094;28;20034;-65
2023/03/07 05:40:39;;;;;;;41.38;16.05;;;1.70;99.90;;;;;;5083481;28;20027;-65
2023/03/07 05:43:06;;;;;;;34.88;15.50;;;1.70;99.90;;;;;;5084123;28;20133;-65
2023/03/07 05:45:32;;;;;;;37.55;15.05;;;1.70;99.90;;;;;;5088414;28;20077;-65
2023/03/07 05:47:59;;;;;;;37.03;15.32;;;1.70;99.90;;;;;;5094290;28;20028;-65
2023/03/07 05:50:25;;;;;;;40.17;16.17;;;1.80;99.90;;;;;;5083972;28;20034;-65
2023/03/07 05:52:51;;;;;;;38.53;15.40;;;1.80;99.90;;;;;;5077189;28;20020;-65
2023/03/07 05:55:18;;;;;;;30.67;14.25;;;1.90;99.90;;;;;;5093535;28;20016;-66
2023/03/07 05:57:44;;;;;;;35.92;15.45;;;1.90;99.90;;;;;;5081531;28;20904;-65
2023/03/07 06:00:10;;;;;;;36.42;15.75;;;1.90;99.90;;;;;;5077886;28;20449;-65
2023/03/07 06:02:46;;;;;;;33.55;14.13;;;1.90;99.90;;;;;;5079260;28;20028;-65
2023/03/07 06:05:14;;;;;;;34.42;14.73;;;1.90;99.90;;;;;;5078371;28;20043;-65
2023/03/07 06:07:40;;;;;;;35.60;15.90;;;2.00;99.90;;;;;;5079079;28;20546;-65
2023/03/07 06:10:06;;;;;;;34.92;15.23;;;2.00;99.90;;;;;;5085307;28;20157;-64
2023/03/07 06:12:33;;;;;;;31.73;13.48;;;2.10;99.90;;;;;;5080085;28;20411;-65
2023/03/07 06:14:59;;;;;;;31.02;14.32;;;2.20;99.90;;;;;;5081616;28;20027;-65
2023/03/07 06:17:24;;;;;;;28.50;13.07;;;2.20;99.90;;;;;;5085049;28;20035;-66
2023/03/07 06:19:52;;;;;;;33.72;14.60;;;2.30;99.90;;;;;;5091226;28;20027;-63
2023/03/07 06:22:18;;;;;;;33.88;13.90;;;2.30;99.90;;;;;;5072474;28;20028;-66
2023/03/07 06:24:44;;;;;;;28.90;13.20;;;2.40;99.90;;;;;;5081272;28;20028;-65
2023/03/07 06:27:10;;;;;;;30.35;12.68;;;2.40;99.90;;;;;;5080554;28;20663;-66
2023/03/07 06:29:36;;;;;;;31.85;14.25;;;2.40;99.90;;;;;;5079295;28;20024;-65
2023/03/07 06:32:03;;;;;;;27.85;13.77;;;2.30;99.90;;;;;;5071285;28;20054;-66
2023/03/07 06:34:28;;;;;;;31.45;13.32;;;2.30;99.90;;;;;;5074421;28;20638;-65
2023/03/07 06:36:55;;;;;;;32.28;12.93;;;2.30;99.90;;;;;;5080345;28;20056;-65
2023/03/07 06:39:21;;;;;;;35.70;14.48;;;2.40;99.90;;;;;;5079765;28;20066;-64
2023/03/07 06:41:50;;;;;;;27.50;12.77;;;2.50;99.90;;;;;;5073079;28;20400;-65
2023/03/07 06:44:16;;;;;;;27.38;12.18;;;2.60;99.90;;;;;;5067495;28;20043;-65
2023/03/07 06:46:43;;;;;;;28.75;12.10;;;2.50;99.90;;;;;;5078857;28;20120;-65
2023/03/07 06:49:12;;;;;;;28.08;12.73;;;2.50;99.90;;;;;;5076664;28;20387;-65
2023/03/07 06:51:38;;;;;;;28.85;12.82;;;2.40;99.90;;;;;;5078879;28;20497;-65
2023/03/07 06:54:06;;;;;;;40.80;16.42;;;2.40;99.90;;;;;;5078462;28;20032;-63
2023/03/07 06:56:33;;;;;;;26.45;11.57;;;2.30;99.90;;;;;;5084698;28;20035;-65
2023/03/07 06:58:59;;;;;;;30.20;12.77;;;2.30;99.90;;;;;;5077055;28;20254;-66
2023/03/07 07:01:25;;;;;;;30.63;12.25;;;2.40;99.90;;;;;;5079647;28;20035;-65
2023/03/07 07:03:53;;;;;;;25.40;11.85;;;2.50;99.90;;;;;;5061227;28;20036;-65
2023/03/07 07:06:19;;;;;;;26.88;12.63;;;2.60;99.90;;;;;;5083911;28;20337;-65
2023/03/07 07:08:46;;;;;;;28.98;12.52;;;2.60;99.90;;;;;;5080828;28;20032;-65
2023/03/07 07:11:12;;;;;;;26.35;11.40;;;2.70;99.90;;;;;;5083230;28;20077;-65
2023/03/07 07:13:38;;;;;;;23.08;11.30;;;2.70;99.90;;;;;;5073602;28;20033;-65
2023/03/07 07:16:07;;;;;;;30.23;13.45;;;2.80;99.90;;;;;;5084836;28;20027;-65
2023/03/07 07:18:35;;;;;;;28.60;11.95;;;2.80;99.90;;;;;;5079673;28;20132;-65
2023/03/07 07:21:04;;;;;;;24.05;11.05;;;3.00;99.90;;;;;;5087630;28;20204;-65
2023/03/07 07:23:30;;;;;;;22.15;9.75;;;3.00;99.90;;;;;;5083483;28;20201;-64
2023/03/07 07:25:56;;;;;;;21.95;10.43;;;3.20;99.90;;;;;;5085326;28;20035;-65
2023/03/07 07:28:22;;;;;;;22.90;10.48;;;3.20;99.90;;;;;;5069500;28;20024;-65
2023/03/07 07:30:47;;;;;;;22.23;10.88;;;3.20;99.90;;;;;;5074432;28;20012;-64
2023/03/07 07:33:15;;;;;;;22.95;10.95;;;3.10;99.90;;;;;;5066516;28;20511;-65
2023/03/07 07:35:45;;;;;;;20.85;10.55;;;3.10;99.90;;;;;;5077884;28;20027;-65
2023/03/07 07:38:11;;;;;;;25.50;11.27;;;3.10;99.90;;;;;;5078731;28;20091;-65
2023/03/07 07:40:37;;;;;;;22.45;10.82;;;3.00;99.90;;;;;;5084890;28;20032;-65
2023/03/07 07:43:03;;;;;;;21.75;10.32;;;3.10;99.90;;;;;;5080396;28;20042;-65
2023/03/07 07:45:44;;;;;;;21.73;10.13;;;3.10;99.90;;;;;;5085634;28;20715;-65
2023/03/07 07:48:14;;;;;;;25.35;11.30;;;3.20;99.90;;;;;;5084028;28;20032;-65
2023/03/07 07:50:40;;;;;;;23.27;10.68;;;3.20;99.90;;;;;;5094446;28;20028;-65
2023/03/07 07:53:06;;;;;;;20.45;9.95;;;3.20;99.90;;;;;;5086224;28;20039;-65
2023/03/07 07:55:32;;;;;;;21.98;11.00;;;3.30;99.90;;;;;;5086093;28;20032;-65
2023/03/07 07:57:58;;;;;;;21.05;10.35;;;3.40;99.90;;;;;;5077005;28;20024;-65
2023/03/07 08:00:24;;;;;;;24.60;10.73;;;3.30;99.90;;;;;;5081538;28;20154;-65
2023/03/07 08:02:50;;;;;;;21.27;10.23;;;3.40;99.90;;;;;;5077207;28;20067;-65
2023/03/07 08:05:18;;;;;;;22.60;10.13;;;3.40;99.90;;;;;;5088584;28;20471;-65
2023/03/07 08:07:44;;;;;;;20.48;10.15;;;3.30;99.90;;;;;;5080945;28;20051;-65
2023/03/07 08:10:14;;;;;;;21.42;10.35;;;3.40;99.90;;;;;;5090249;28;20028;-65
2023/03/07 08:12:46;;;;;;;23.73;10.82;;;3.40;99.90;;;;;;5082996;28;20047;-65
2023/03/07 08:15:12;;;;;;;21.75;10.00;;;3.40;99.90;;;;;;5085164;28;20032;-65
2023/03/07 08:17:38;;;;;;;21.40;10.52;;;3.40;99.90;;;;;;5085355;28;20057;-65
2023/03/07 08:20:08;;;;;;;23.65;10.90;;;3.50;99.90;;;;;;5087656;28;20040;-65
2023/03/07 08:22:37;;;;;;;17.20;9.65;;;3.50;99.90;;;;;;5081013;28;20551;-65
2023/03/07 08:25:05;;;;;;;22.48;9.40;;;3.50;99.90;;;;;;5088501;28;20420;-65
2023/03/07 08:27:30;;;;;;;20.00;9.95;;;3.60;99.90;;;;;;5086113;28;20069;-65
2023/03/07 08:29:57;;;;;;;20.85;9.82;;;3.50;99.90;;;;;;5085549;28;20032;-65
2023/03/07 08:32:22;;;;;;;18.63;9.70;;;3.60;99.90;;;;;;5084888;28;20510;-65
2023/03/07 08:34:48;;;;;;;19.00;10.23;;;3.70;99.90;;;;;;5085571;28;20103;-65
2023/03/07 08:37:14;;;;;;;20.73;10.40;;;3.90;99.90;;;;;;5079036;28;20725;-65
2023/03/07 08:39:40;;;;;;;17.05;7.80;;;4.00;99.90;;;;;;5086722;28;20832;-65
2023/03/07 08:42:05;;;;;;;20.13;9.40;;;4.10;99.90;;;;;;5081912;28;20031;-65
2023/03/07 08:44:31;;;;;;;17.10;8.75;;;4.00;99.90;;;;;;5088111;28;20504;-65
2023/03/07 08:46:57;;;;;;;17.13;8.73;;;4.00;99.90;;;;;;5082407;28;20391;-65
2023/03/07 08:49:23;;;;;;;17.08;9.13;;;4.10;99.90;;;;;;5086386;28;20035;-65
2023/03/07 08:51:49;;;;;;;17.80;9.15;;;4.20;99.90;;;;;;5076609;28;20029;-65
2023/03/07 08:54:15;;;;;;;16.52;7.93;;;4.10;99.90;;;;;;5082457;28;20115;-65
2023/03/07 08:56:41;;;;;;;18.63;9.38;;;4.20;99.90;;;;;;5072016;28;20028;-65
2023/03/07 08:59:06;;;;;;;17.83;8.68;;;4.20;99.90;;;;;;5087207;28;20502;-65
2023/03/07 09:01:32;;;;;;;14.85;8.05;;;4.30;99.90;;;;;;5086939;28;20034;-64
2023/03/07 09:03:58;;;;;;;18.42;8.95;;;4.40;99.90;;;;;;5079978;28;20165;-65
2023/03/07 09:06:24;;;;;;;17.75;8.63;;;4.60;99.90;;;;;;5081521;28;20036;-64
2023/03/07 09:08:50;;;;;;;22.13;11.32;;;4.70;99.90;;;;;;5085763;28;20028;-65
2023/03/07 09:11:17;;;;;;;16.60;9.13;;;4.90;99.90;;;;;;5081562;28;20672;-65
2023/03/07 09:13:43;;;;;;;19.45;9.48;;;5.00;99.90;;;;;;5081639;28;20033;-65
2023/03/07 09:16:09;;;;;;;14.32;8.10;;;5.10;99.90;;;;;;5080282;28;20032;-72
2023/03/07 09:18:35;;;;;;;14.13;8.05;;;5.20;99.90;;;;;;5073339;28;20479;-66
2023/03/07 09:21:02;;;;;;;13.82;7.10;;;5.50;99.90;;;;;;5079864;28;20132;-65
2023/03/07 09:23:28;;;;;;;18.55;10.40;;;5.50;99.90;;;;;;5083609;28;20090;-65
2023/03/07 09:25:57;;;;;;;20.83;11.63;;;5.40;99.90;;;;;;5078640;28;20044;-65
2023/03/07 09:28:23;;;;;;;14.75;7.50;;;5.30;99.90;;;;;;5073995;28;20190;-65
2023/03/07 09:30:49;;;;;;;19.38;10.00;;;5.30;99.90;;;;;;5081783;28;20097;-66
2023/03/07 09:33:15;;;;;;;22.17;11.18;;;5.40;99.90;;;;;;5083722;28;20461;-64
2023/03/07 09:35:41;;;;;;;16.10;8.45;;;5.50;99.90;;;;;;5078102;28;20051;-65
2023/03/07 09:38:07;;;;;;;20.35;10.50;;;5.60;99.90;;;;;;5082340;28;20051;-65
2023/03/07 09:40:33;;;;;;;15.90;8.55;;;5.60;99.90;;;;;;5082385;28;20068;-66
2023/03/07 09:43:07;;;;;;;12.45;7.07;;;5.60;99.90;;;;;;5078663;28;20025;-65
2023/03/07 09:45:46;;;;;;;12.35;6.60;;;5.50;99.90;;;;;;5090055;28;20096;-65
2023/03/07 09:48:42;;;;;;;16.40;7.75;;;5.40;99.90;;;;;;5078677;28;20506;-65
2023/03/07 09:51:17;;;;;;;14.73;7.93;;;5.50;99.90;;;;;;5086283;28;20030;-65
2023/03/07 09:53:59;;;;;;;14.10;6.43;;;5.50;99.90;;;;;;5081995;28;20039;-65
2023/03/07 09:56:38;;;;;;;10.40;5.63;;;5.30;99.90;;;;;;5075844;28;20101;-65
2023/03/07 09:59:23;;;;;;;8.95;5.47;;;5.20;99.90;;;;;;5083051;28;20042;-65
2023/03/07 10:02:11;;;;;;;9.93;5.78;;;5.20;99.90;;;;;;5085134;28;20035;-65
2023/03/07 10:04:58;;;;;;;8.25;5.32;;;5.20;99.90;;;;;;5079447;28;20044;-65
2023/03/07 10:07:25;;;;;;;10.32;6.18;;;5.00;99.90;;;;;;5089031;28;20032;-65
2023/03/07 10:10:01;;;;;;;11.15;6.18;;;4.90;99.90;;;;;;5085123;28;20071;-64
2023/03/07 10:12:30;;;;;;;;;;;4.70;99.90;;;;;;5082344;28;20028;-65
2023/03/07 10:15:13;;;;;;;14.63;7.32;;;4.70;99.90;;;;;;5079092;28;19912;-65
2023/03/07 10:17:59;;;;;;;15.88;7.80;;;4.90;99.90;;;;;;5077247;28;20041;-65
2023/03/07 10:20:31;;;;;;;11.68;6.15;;;5.10;99.90;;;;;;5077890;28;20035;-65
2023/03/07 10:22:59;;;;;;;10.52;5.97;;;5.20;99.90;;;;;;5084243;28;20027;-65
2023/03/07 10:25:30;;;;;;;26.38;11.57;;;5.30;99.90;;;;;;5081173;28;20230;-65
2023/03/07 10:28:17;;;;;;;12.32;7.03;;;5.50;99.90;;;;;;5075499;28;20937;-65
2023/03/07 10:30:43;;;;;;;;;;;5.60;99.90;;;;;;5078777;28;20110;-65
2023/03/07 10:33:17;;;;;;;9.48;5.72;;;5.80;99.90;;;;;;5077975;28;19933;-65
2023/03/07 10:35:47;;;;;;;11.48;6.00;;;5.80;99.90;;;;;;5079834;28;20047;-65
2023/03/07 10:38:26;;;;;;;13.85;7.57;;;5.70;99.90;;;;;;5087130;28;20027;-65
2023/03/07 10:40:56;;;;;;;19.85;10.02;;;5.60;99.90;;;;;;5081342;28;20028;-66
2023/03/07 10:43:23;;;;;;;33.55;14.40;;;5.50;99.90;;;;;;5083236;28;20589;-66
2023/03/07 10:45:58;;;;;;;41.70;18.25;;;5.50;99.90;;;;;;5071724;28;20046;-64
2023/03/07 10:48:25;;;;;;;19.02;8.38;;;5.80;99.90;;;;;;5075337;28;20042;-63
2023/03/07 10:51:05;;;;;;;10.80;6.05;;;6.00;99.90;;;;;;5073660;28;20083;-63
2023/03/07 10:53:35;;;;;;;13.23;6.90;;;6.10;99.90;;;;;;5075720;28;20028;-64
2023/03/07 10:56:15;;;;;;;28.33;13.00;;;6.30;99.90;;;;;;5083759;28;20024;-64
2023/03/07 10:58:59;;;;;;;8.10;4.60;;;6.30;99.90;;;;;;5074459;28;20042;-64
2023/03/07 11:01:26;;;;;;;8.73;4.40;;;6.00;99.70;;;;;;5077703;28;20039;-64
2023/03/07 11:04:03;;;;;;;8.75;4.82;;;5.90;99.90;;;;;;5081225;28;20066;-63
2023/03/07 11:06:49;;;;;;;6.28;3.67;;;5.90;99.70;;;;;;5078362;28;20036;-63
2023/03/07 11:09:44;;;;;;;8.00;5.18;;;5.80;99.20;;;;;;5080903;28;20059;-63
2023/03/07 11:12:17;;;;;;;6.68;4.30;;;5.80;99.50;;;;;;5077428;28;20039;-64
2023/03/07 11:14:51;;;;;;;4.97;3.60;;;5.70;99.50;;;;;;5077990;28;20055;-63
2023/03/07 11:17:32;;;;;;;5.80;3.50;;;5.90;99.80;;;;;;5074877;28;20036;-64
2023/03/07 11:19:58;;;;;;;4.70;2.42;;;5.90;98.60;;;;;;5080366;28;20039;-64
2023/03/07 11:22:32;;;;;;;5.47;2.60;;;5.80;98.00;;;;;;5073592;28;20051;-63
2023/03/07 11:25:05;;;;;;;3.13;2.05;;;5.70;98.30;;;;;;5085055;28;20032;-63
2023/03/07 11:27:35;;;;;;;3.70;1.80;;;5.60;98.00;;;;;;5070676;28;20028;-64
2023/03/07 11:30:43;;;;;;;3.40;1.50;;;5.60;98.00;;;;;;5088508;28;20054;-63
2023/03/07 11:33:27;;;;;;;5.63;2.42;;;5.80;98.00;;;;;;5075673;28;20114;-64
2023/03/07 11:36:05;;;;;;;2.90;1.33;;;6.10;97.30;;;;;;5084355;28;20047;-63
2023/03/07 11:38:43;;;;;;;2.55;1.10;;;6.00;95.70;;;;;;5081656;28;21017;-63
2023/03/07 11:41:21;;;;;;;3.60;1.88;;;6.10;96.50;;;;;;5082095;28;20035;-63
2023/03/07 11:44:01;;;;;;;3.42;1.45;;;6.10;95.60;;;;;;5081803;28;20027;-64
2023/03/07 11:46:49;;;;;;;3.58;1.50;;;6.10;95.20;;;;;;5073447;28;20028;-64
2023/03/07 11:49:39;;;;;;;3.38;1.10;;;6.20;96.00;;;;;;5075477;28;20810;-63
2023/03/07 11:52:21;;;;;;;1.92;1.15;;;6.30;96.00;;;;;;5074110;28;20028;-64
2023/03/07 11:54:49;;;;;;;4.18;0.88;;;6.30;95.30;;;;;;5084219;28;20040;-64
2023/03/07 11:57:52;;;;;;;2.08;0.95;;;6.40;95.40;;;;;;5070805;28;20090;-63
2023/03/07 12:00:42;;;;;;;4.47;2.10;;;6.50;95.40;;;;;;5081711;28;20024;-64
2023/03/07 12:03:26;;;;;;;3.92;2.05;;;6.50;95.30;;;;;;5077202;28;20652;-64
2023/03/07 12:05:55;;;;;;;1.77;1.23;;;6.30;95.00;;;;;;5074256;28;20024;-64
2023/03/07 12:08:46;;;;;;;2.90;1.17;;;6.30;95.50;;;;;;5077712;28;20032;-61
2023/03/07 12:11:40;;;;;;;1.95;1.10;;;6.20;94.90;;;;;;5069544;28;20021;-64
2023/03/07 12:14:24;;;;;;;3.95;1.25;;;6.00;95.30;;;;;;5077468;28;20060;-64
2023/03/07 12:17:13;;;;;;;1.38;1.17;;;6.00;95.80;;;;;;5070985;28;20029;-64
2023/03/07 12:19:48;;;;;;;1.65;0.95;;;6.00;96.10;;;;;;5065085;28;20850;-64
2023/03/07 12:22:52;;;;;;;3.17;1.60;;;6.10;96.40;;;;;;5067922;28;20029;-64
2023/03/07 12:25:23;;;;;;;2.50;1.45;;;6.00;96.10;;;;;;5071954;28;20176;-64
2023/03/07 12:28:00;;;;;;;2.35;1.00;;;6.00;96.60;;;;;;5068661;28;20753;-64
2023/03/07 12:30:46;;;;;;;1.40;0.80;;;5.80;97.10;;;;;;5072050;28;20178;-64
2023/03/07 12:33:22;;;;;;;7.88;3.92;;;5.80;97.70;;;;;;5076193;28;20020;-64
2023/03/07 12:35:52;;;;;;;11.50;5.95;;;5.80;97.50;;;;;;5074879;28;20088;-64
2023/03/07 12:38:40;;;;;;;10.02;6.32;;;5.80;97.80;;;;;;5074761;28;20044;-64
2023/03/07 12:41:32;;;;;;;2.00;1.27;;;5.70;97.60;;;;;;5070436;28;20052;-64
2023/03/07 12:44:05;;;;;;;3.38;1.00;;;5.60;98.10;;;;;;5068715;28;20096;-64
2023/03/07 12:46:39;;;;;;;2.05;1.00;;;5.70;98.40;;;;;;5076445;28;20031;-64
2023/03/07 12:49:18;;;;;;;1.25;0.98;;;5.70;98.60;;;;;;5071420;28;20528;-65
2023/03/07 12:51:49;;;;;;;2.22;1.13;;;5.80;98.50;;;;;;5080936;28;20095;-63
2023/03/07 12:54:26;;;;;;;4.22;2.00;;;5.80;98.40;;;;;;5080411;28;20055;-63
2023/03/07 12:57:05;;;;;;;3.00;2.10;;;5.70;98.60;;;;;;5074028;28;20499;-64
2023/03/07 12:59:35;;;;;;;3.00;1.40;;;5.70;98.60;;;;;;5081317;28;20023;-63